sensor_id;sensor_type;location;lat;lon;timestamp;pressure;altitude;pressure_sealevel;temperature;humidity
59767;BME280;46248;58.364;25.582;2023-11-19T00:01:59;101345.78;;;-5.42;100.00
59767;BME280;46248;58.364;25.582;2023-11-19T00:05:23;101366.75;;;-5.22;100.00
59767;BME280;46248;58.364;25.582;2023-11-19T00:08:46;101366.16;;;-5.12;100.00
59767;BME280;46248;58.364;25.582;2023-11-19T00:12:08;101375.72;;;-5.05;100.00
59767;BME280;46248;58.364;25.582;2023-11-19T00:15:31;101367.31;;;-5.01;100.00
59767;BME280;46248;58.364;25.582;2023-11-19T00:18:54;101370.88;;;-4.94;100.00
59767;BME280;46248;58.364;25.582;2023-11-19T00:22:19;101367.47;;;-4.95;100.00
59767;BME280;46248;58.364;25.582;2023-11-19T00:25:43;101358.91;;;-4.97;100.00
59767;BME280;46248;58.364;25.582;2023-11-19T00:29:06;101372.75;;;-4.87;100.00
59767;BME280;46248;58.364;25.582;2023-11-19T00:32:29;101371.97;;;-4.85;100.00
59767;BME280;46248;58.364;25.582;2023-11-19T00:35:52;101377.22;;;-4.80;100.00
59767;BME280;46248;58.364;25.582;2023-11-19T00:39:16;101372.19;;;-4.77;100.00
59767;BME280;46248;58.364;25.582;2023-11-19T00:42:42;101364.59;;;-4.74;100.00
59767;BME280;46248;58.364;25.582;2023-11-19T00:46:07;101379.22;;;-4.67;100.00
59767;BME280;46248;58.364;25.582;2023-11-19T00:49:32;101363.91;;;-4.67;100.00
59767;BME280;46248;58.364;25.582;2023-11-19T00:52:55;101361.47;;;-4.62;100.00
59767;BME280;46248;58.364;25.582;2023-11-19T00:56:20;101352.19;;;-4.58;100.00
59767;BME280;46248;58.364;25.582;2023-11-19T00:59:43;101345.44;;;-4.56;100.00
59767;BME280;46248;58.364;25.582;2023-11-19T01:03:05;101342.09;;;-4.52;100.00
59767;BME280;46248;58.364;25.582;2023-11-19T01:06:29;101336.22;;;-4.50;100.00
59767;BME280;46248;58.364;25.582;2023-11-19T01:09:52;101329.41;;;-4.49;100.00
59767;BME280;46248;58.364;25.582;2023-11-19T01:13:17;101338.91;;;-4.44;100.00
59767;BME280;46248;58.364;25.582;2023-11-19T01:16:39;101324.41;;;-4.45;100.00
59767;BME280;46248;58.364;25.582;2023-11-19T01:20:04;101340.75;;;-4.38;100.00
59767;BME280;46248;58.364;25.582;2023-11-19T01:23:29;101327.97;;;-4.38;100.00
59767;BME280;46248;58.364;25.582;2023-11-19T01:26:52;101325.50;;;-4.33;100.00
59767;BME280;46248;58.364;25.582;2023-11-19T01:30:16;101327.25;;;-4.31;100.00
59767;BME280;46248;58.364;25.582;2023-11-19T01:33:40;101317.88;;;-4.32;100.00
59767;BME280;46248;58.364;25.582;2023-11-19T01:37:04;101306.06;;;-4.25;100.00
59767;BME280;46248;58.364;25.582;2023-11-19T01:40:26;101300.97;;;-4.24;100.00
59767;BME280;46248;58.364;25.582;2023-11-19T01:43:49;101307.06;;;-4.19;100.00
59767;BME280;46248;58.364;25.582;2023-11-19T01:47:14;101297.69;;;-4.18;100.00
59767;BME280;46248;58.364;25.582;2023-11-19T01:50:37;101253.16;;;-4.29;100.00
59767;BME280;46248;58.364;25.582;2023-11-19T01:54:01;101270.56;;;-4.11;100.00
59767;BME280;46248;58.364;25.582;2023-11-19T01:57:25;101277.44;;;-4.09;100.00
59767;BME280;46248;58.364;25.582;2023-11-19T02:00:47;101291.97;;;-4.08;100.00
59767;BME280;46248;58.364;25.582;2023-11-19T02:04:12;101293.75;;;-4.04;100.00
59767;BME280;46248;58.364;25.582;2023-11-19T02:07:36;101283.56;;;-4.02;100.00
59767;BME280;46248;58.364;25.582;2023-11-19T02:10:59;101275.94;;;-3.99;100.00
59767;BME280;46248;58.364;25.582;2023-11-19T02:14:25;101269.13;;;-3.97;100.00
59767;BME280;46248;58.364;25.582;2023-11-19T02:17:50;101264.88;;;-3.97;100.00
59767;BME280;46248;58.364;25.582;2023-11-19T02:21:14;101264.94;;;-3.95;100.00
59767;BME280;46248;58.364;25.582;2023-11-19T02:24:39;101259.75;;;-3.98;100.00
59767;BME280;46248;58.364;25.582;2023-11-19T02:28:04;101264.94;;;-3.95;100.00
59767;BME280;46248;58.364;25.582;2023-11-19T02:31:27;101265.78;;;-3.95;100.00
59767;BME280;46248;58.364;25.582;2023-11-19T02:34:51;101252.13;;;-3.95;100.00
59767;BME280;46248;58.364;25.582;2023-11-19T02:38:13;101256.47;;;-3.91;100.00
59767;BME280;46248;58.364;25.582;2023-11-19T02:41:36;101247.97;;;-3.90;100.00
59767;BME280;46248;58.364;25.582;2023-11-19T02:45:02;101252.31;;;-3.86;100.00
59767;BME280;46248;58.364;25.582;2023-11-19T02:48:28;101246.41;;;-3.82;100.00
59767;BME280;46248;58.364;25.582;2023-11-19T02:51:51;101240.47;;;-3.81;100.00
59767;BME280;46248;58.364;25.582;2023-11-19T02:55:14;101232.81;;;-3.79;100.00
59767;BME280;46248;58.364;25.582;2023-11-19T02:58:39;101202.69;;;-3.96;100.00
59767;BME280;46248;58.364;25.582;2023-11-19T03:02:05;101238.91;;;-3.74;100.00
59767;BME280;46248;58.364;25.582;2023-11-19T03:05:28;101233.78;;;-3.73;100.00
59767;BME280;46248;58.364;25.582;2023-11-19T03:08:51;101232.97;;;-3.72;100.00
59767;BME280;46248;58.364;25.582;2023-11-19T03:12:14;101221.06;;;-3.70;100.00
59767;BME280;46248;58.364;25.582;2023-11-19T03:15:37;101213.38;;;-3.70;100.00
59767;BME280;46248;58.364;25.582;2023-11-19T03:19:02;101216.09;;;-3.62;100.00
59767;BME280;46248;58.364;25.582;2023-11-19T03:22:25;101205.03;;;-3.59;100.00
59767;BME280;46248;58.364;25.582;2023-11-19T03:25:48;101211.03;;;-3.57;100.00
59767;BME280;46248;58.364;25.582;2023-11-19T03:29:11;101205.06;;;-3.58;100.00
59767;BME280;46248;58.364;25.582;2023-11-19T03:32:34;101196.56;;;-3.57;100.00
59767;BME280;46248;58.364;25.582;2023-11-19T03:35:58;101192.28;;;-3.56;100.00
59767;BME280;46248;58.364;25.582;2023-11-19T03:39:21;101198.28;;;-3.56;100.00
59767;BME280;46248;58.364;25.582;2023-11-19T03:42:46;101176.84;;;-3.62;100.00
59767;BME280;46248;58.364;25.582;2023-11-19T03:46:17;101194.06;;;-3.52;100.00
59767;BME280;46248;58.364;25.582;2023-11-19T03:49:41;101198.38;;;-3.50;100.00
59767;BME280;46248;58.364;25.582;2023-11-19T03:53:06;101195.81;;;-3.48;100.00
59767;BME280;46248;58.364;25.582;2023-11-19T03:56:29;101197.56;;;-3.47;100.00
59767;BME280;46248;58.364;25.582;2023-11-19T03:59:52;101196.78;;;-3.44;100.00
59767;BME280;46248;58.364;25.582;2023-11-19T04:03:16;101180.56;;;-3.43;100.00
59767;BME280;46248;58.364;25.582;2023-11-19T04:06:41;101183.13;;;-3.42;100.00
59767;BME280;46248;58.364;25.582;2023-11-19T04:10:06;101177.16;;;-3.42;100.00
59767;BME280;46248;58.364;25.582;2023-11-19T04:13:29;101160.94;;;-3.43;100.00
59767;BME280;46248;58.364;25.582;2023-11-19T04:16:52;101166.94;;;-3.41;100.00
59767;BME280;46248;58.364;25.582;2023-11-19T04:20:16;101166.09;;;-3.40;100.00
59767;BME280;46248;58.364;25.582;2023-11-19T04:23:39;101160.97;;;-3.41;100.00
59767;BME280;46248;58.364;25.582;2023-11-19T04:27:04;101157.56;;;-3.40;100.00
59767;BME280;46248;58.364;25.582;2023-11-19T04:30:28;101149.97;;;-3.36;100.00
59767;BME280;46248;58.364;25.582;2023-11-19T04:33:52;101143.16;;;-3.35;100.00
59767;BME280;46248;58.364;25.582;2023-11-19T04:37:16;101115.56;;;-3.53;100.00
59767;BME280;46248;58.364;25.582;2023-11-19T04:40:39;101137.09;;;-3.39;100.00
59767;BME280;46248;58.364;25.582;2023-11-19T04:44:04;101146.59;;;-3.32;100.00
59767;BME280;46248;58.364;25.582;2023-11-19T04:47:27;101137.19;;;-3.34;100.00
59767;BME280;46248;58.364;25.582;2023-11-19T04:50:50;101148.38;;;-3.28;100.00
59767;BME280;46248;58.364;25.582;2023-11-19T04:54:14;101145.81;;;-3.28;100.00
59767;BME280;46248;58.364;25.582;2023-11-19T04:57:37;101153.56;;;-3.23;100.00
59767;BME280;46248;58.364;25.582;2023-11-19T05:01:00;101145.09;;;-3.20;100.00
59767;BME280;46248;58.364;25.582;2023-11-19T05:04:24;101142.53;;;-3.20;100.00
59767;BME280;46248;58.364;25.582;2023-11-19T05:07:47;101141.66;;;-3.19;100.00
59767;BME280;46248;58.364;25.582;2023-11-19T05:11:11;101151.97;;;-3.16;100.00
59767;BME280;46248;58.364;25.582;2023-11-19T05:14:39;101137.31;;;-3.25;100.00
59767;BME280;46248;58.364;25.582;2023-11-19T05:18:03;101145.13;;;-3.16;100.00
59767;BME280;46248;58.364;25.582;2023-11-19T05:21:26;101140.91;;;-3.14;100.00
59767;BME280;46248;58.364;25.582;2023-11-19T05:24:50;101143.44;;;-3.15;100.00
59767;BME280;46248;58.364;25.582;2023-11-19T05:28:13;101131.47;;;-3.16;100.00
59767;BME280;46248;58.364;25.582;2023-11-19T05:31:37;101134.94;;;-3.14;100.00
59767;BME280;46248;58.364;25.582;2023-11-19T05:35:07;101140.09;;;-3.11;100.00
59767;BME280;46248;58.364;25.582;2023-11-19T05:38:30;101128.06;;;-3.15;100.00
59767;BME280;46248;58.364;25.582;2023-11-19T05:41:52;101128.19;;;-3.08;100.00
59767;BME280;46248;58.364;25.582;2023-11-19T05:45:15;101128.19;;;-3.08;100.00
59767;BME280;46248;58.364;25.582;2023-11-19T05:48:38;101132.53;;;-3.02;100.00
59767;BME280;46248;58.364;25.582;2023-11-19T05:52:03;101129.16;;;-2.98;100.00
59767;BME280;46248;58.364;25.582;2023-11-19T05:55:29;101117.22;;;-2.97;100.00
59767;BME280;46248;58.364;25.582;2023-11-19T05:58:52;101121.56;;;-2.93;100.00
59767;BME280;46248;58.364;25.582;2023-11-19T06:02:15;101114.66;;;-2.97;100.00
59767;BME280;46248;58.364;25.582;2023-11-19T06:05:38;101119.88;;;-2.90;100.00
59767;BME280;46248;58.364;25.582;2023-11-19T06:09:03;101115.66;;;-2.85;100.00
59767;BME280;46248;58.364;25.582;2023-11-19T06:12:30;101117.41;;;-2.82;100.00
59767;BME280;46248;58.364;25.582;2023-11-19T06:15:53;101111.47;;;-2.81;100.00
59767;BME280;46248;58.364;25.582;2023-11-19T06:19:16;101114.03;;;-2.81;100.00
59767;BME280;46248;58.364;25.582;2023-11-19T06:22:38;101114.03;;;-2.81;100.00
59767;BME280;46248;58.364;25.582;2023-11-19T06:26:03;101102.84;;;-2.85;100.00
59767;BME280;46248;58.364;25.582;2023-11-19T06:29:26;101114.88;;;-2.79;100.00
59767;BME280;46248;58.364;25.582;2023-11-19T06:32:49;101109.81;;;-2.78;100.00
59767;BME280;46248;58.364;25.582;2023-11-19T06:36:14;101114.09;;;-2.75;100.00
59767;BME280;46248;58.364;25.582;2023-11-19T06:39:39;101114.09;;;-2.73;100.00
59767;BME280;46248;58.364;25.582;2023-11-19T06:43:03;101103.91;;;-2.70;100.00
59767;BME280;46248;58.364;25.582;2023-11-19T06:46:29;101099.59;;;-2.74;100.00
59767;BME280;46248;58.364;25.582;2023-11-19T06:49:52;101098.81;;;-2.67;100.00
59767;BME280;46248;58.364;25.582;2023-11-19T06:53:15;101067.91;;;-2.80;100.00
59767;BME280;46248;58.364;25.582;2023-11-19T06:56:38;101106.59;;;-2.60;100.00
59767;BME280;46248;58.364;25.582;2023-11-19T07:00:03;101094.56;;;-2.65;100.00
59767;BME280;46248;58.364;25.582;2023-11-19T07:03:27;101113.50;;;-2.53;100.00
59767;BME280;46248;58.364;25.582;2023-11-19T07:06:50;101099.84;;;-2.53;100.00
59767;BME280;46248;58.364;25.582;2023-11-19T07:10:13;101101.63;;;-2.46;100.00
59767;BME280;46248;58.364;25.582;2023-11-19T07:13:36;101089.69;;;-2.44;100.00
59767;BME280;46248;58.364;25.582;2023-11-19T07:17:00;101092.28;;;-2.41;100.00
59767;BME280;46248;58.364;25.582;2023-11-19T07:20:23;101095.75;;;-2.36;100.00
59767;BME280;46248;58.364;25.582;2023-11-19T07:23:48;101075.19;;;-2.42;100.00
59767;BME280;46248;58.364;25.582;2023-11-19T07:27:13;101087.22;;;-2.35;100.00
59767;BME280;46248;58.364;25.582;2023-11-19T07:30:38;101090.69;;;-2.28;100.00
59767;BME280;46248;58.364;25.582;2023-11-19T07:34:02;101094.19;;;-2.23;100.00
59767;BME280;46248;58.364;25.582;2023-11-19T07:37:26;101090.78;;;-2.19;100.00
59767;BME280;46248;58.364;25.582;2023-11-19T07:40:49;101074.50;;;-2.22;100.00
59767;BME280;46248;58.364;25.582;2023-11-19T07:44:14;101087.47;;;-2.12;100.00
59767;BME280;46248;58.364;25.582;2023-11-19T07:47:38;101081.47;;;-2.09;100.00
59767;BME280;46248;58.364;25.582;2023-11-19T07:51:02;101064.34;;;-2.15;100.00
59767;BME280;46248;58.364;25.582;2023-11-19T07:54:25;101084.97;;;-2.01;100.00
59767;BME280;46248;58.364;25.582;2023-11-19T07:57:48;101078.16;;;-1.97;100.00
59767;BME280;46248;58.364;25.582;2023-11-19T08:01:11;101076.50;;;-1.92;100.00
59767;BME280;46248;58.364;25.582;2023-11-19T08:04:34;101078.25;;;-1.90;100.00
59767;BME280;46248;58.364;25.582;2023-11-19T08:07:59;101069.72;;;-1.86;100.00
59767;BME280;46248;58.364;25.582;2023-11-19T08:11:21;101071.47;;;-1.80;100.00
59767;BME280;46248;58.364;25.582;2023-11-19T08:14:44;101076.63;;;-1.77;100.00
59767;BME280;46248;58.364;25.582;2023-11-19T08:18:07;101073.22;;;-1.77;100.00
59767;BME280;46248;58.364;25.582;2023-11-19T08:21:30;101066.41;;;-1.75;100.00
59767;BME280;46248;58.364;25.582;2023-11-19T08:24:54;101068.13;;;-1.71;100.00
59767;BME280;46248;58.364;25.582;2023-11-19T08:28:18;101062.13;;;-1.72;100.00
59767;BME280;46248;58.364;25.582;2023-11-19T08:31:41;101066.44;;;-1.68;100.00
59767;BME280;46248;58.364;25.582;2023-11-19T08:35:04;101057.88;;;-1.68;100.00
59767;BME280;46248;58.364;25.582;2023-11-19T08:38:27;101056.16;;;-1.68;100.00
59767;BME280;46248;58.364;25.582;2023-11-19T08:41:53;101057.06;;;-1.63;100.00
59767;BME280;46248;58.364;25.582;2023-11-19T08:45:16;101063.09;;;-1.59;100.00
59767;BME280;46248;58.364;25.582;2023-11-19T08:48:40;101057.97;;;-1.56;100.00
59767;BME280;46248;58.364;25.582;2023-11-19T08:52:03;101061.41;;;-1.54;100.00
59767;BME280;46248;58.364;25.582;2023-11-19T08:55:26;101053.72;;;-1.51;100.00
59767;BME280;46248;58.364;25.582;2023-11-19T08:58:53;101046.03;;;-1.49;100.00
59767;BME280;46248;58.364;25.582;2023-11-19T09:02:15;101045.22;;;-1.44;100.00
59767;BME280;46248;58.364;25.582;2023-11-19T09:05:39;101040.09;;;-1.38;100.00
59767;BME280;46248;58.364;25.582;2023-11-19T09:09:02;101026.38;;;-1.40;100.00
59767;BME280;46248;58.364;25.582;2023-11-19T09:12:26;101033.28;;;-1.31;100.00
59767;BME280;46248;58.364;25.582;2023-11-19T09:15:51;101026.44;;;-1.27;100.00
59767;BME280;46248;58.364;25.582;2023-11-19T09:19:13;101028.22;;;-1.23;100.00
59767;BME280;46248;58.364;25.582;2023-11-19T09:22:36;101016.22;;;-1.20;100.00
59767;BME280;46248;58.364;25.582;2023-11-19T09:25:59;101014.53;;;-1.16;100.00
59767;BME280;46248;58.364;25.582;2023-11-19T09:29:22;101013.72;;;-1.12;100.00
59767;BME280;46248;58.364;25.582;2023-11-19T09:32:48;101012.00;;;-1.07;100.00
59767;BME280;46248;58.364;25.582;2023-11-19T09:36:12;101005.16;;;-1.02;100.00
59767;BME280;46248;58.364;25.582;2023-11-19T09:39:37;101005.19;;;-0.99;100.00
59767;BME280;46248;58.364;25.582;2023-11-19T09:43:04;101005.22;;;-0.93;100.00
59767;BME280;46248;58.364;25.582;2023-11-19T09:46:28;100993.22;;;-0.94;100.00
59767;BME280;46248;58.364;25.582;2023-11-19T09:49:54;100993.25;;;-0.84;100.00
59767;BME280;46248;58.364;25.582;2023-11-19T09:53:19;100996.69;;;-0.81;100.00
59767;BME280;46248;58.364;25.582;2023-11-19T09:56:43;101002.69;;;-0.77;100.00
59767;BME280;46248;58.364;25.582;2023-11-19T10:00:08;100981.25;;;-0.84;100.00
59767;BME280;46248;58.364;25.582;2023-11-19T10:03:33;100993.28;;;-0.72;100.00
59767;BME280;46248;58.364;25.582;2023-11-19T10:07:00;100982.13;;;-0.73;100.00
59767;BME280;46248;58.364;25.582;2023-11-19T10:10:24;100985.56;;;-0.72;100.00
59767;BME280;46248;58.364;25.582;2023-11-19T10:13:47;100987.28;;;-0.66;100.00
59767;BME280;46248;58.364;25.582;2023-11-19T10:17:10;100975.28;;;-0.69;100.00
59767;BME280;46248;58.364;25.582;2023-11-19T10:20:35;100981.28;;;-0.65;100.00
59767;BME280;46248;58.364;25.582;2023-11-19T10:24:00;100980.44;;;-0.66;100.00
59767;BME280;46248;58.364;25.582;2023-11-19T10:27:24;100980.41;;;-0.64;100.00
59767;BME280;46248;58.364;25.582;2023-11-19T10:30:48;100974.44;;;-0.66;100.00
59767;BME280;46248;58.364;25.582;2023-11-19T10:34:24;100964.13;;;-0.71;100.00
59767;BME280;46248;58.364;25.582;2023-11-19T10:37:48;100964.97;;;-0.74;100.00
59767;BME280;46248;58.364;25.582;2023-11-19T10:41:27;100973.56;;;-0.72;100.00
59767;BME280;46248;58.364;25.582;2023-11-19T10:44:50;100973.53;;;-0.73;100.00
59767;BME280;46248;58.364;25.582;2023-11-19T10:48:13;100968.41;;;-0.72;100.00
59767;BME280;46248;58.364;25.582;2023-11-19T10:51:36;100969.28;;;-0.71;100.00
59767;BME280;46248;58.364;25.582;2023-11-19T10:55:06;100965.00;;;-0.69;100.00
59767;BME280;46248;58.364;25.582;2023-11-19T10:58:32;100963.25;;;-0.70;100.00
59767;BME280;46248;58.364;25.582;2023-11-19T11:01:56;100959.00;;;-0.68;100.00
59767;BME280;46248;58.364;25.582;2023-11-19T11:05:21;100946.13;;;-0.62;100.00
59767;BME280;46248;58.364;25.582;2023-11-19T11:08:46;100949.56;;;-0.64;100.00
59767;BME280;46248;58.364;25.582;2023-11-19T11:12:10;100941.84;;;-0.61;100.00
59767;BME280;46248;58.364;25.582;2023-11-19T11:15:34;100937.56;;;-0.61;100.00
59767;BME280;46248;58.364;25.582;2023-11-19T11:18:58;100937.56;;;-0.59;100.00
59767;BME280;46248;58.364;25.582;2023-11-19T11:22:22;100938.44;;;-0.59;100.00
59767;BME280;46248;58.364;25.582;2023-11-19T11:25:57;100930.72;;;-0.57;100.00
59767;BME280;46248;58.364;25.582;2023-11-19T11:29:27;100929.88;;;-0.56;100.00
59767;BME280;46248;58.364;25.582;2023-11-19T11:33:04;100929.00;;;-0.60;100.00
59767;BME280;46248;58.364;25.582;2023-11-19T11:36:31;100923.00;;;-0.60;100.00
59767;BME280;46248;58.364;25.582;2023-11-19T11:39:57;100933.28;;;-0.59;100.00
59767;BME280;46248;58.364;25.582;2023-11-19T11:43:45;100936.72;;;-0.58;100.00
59767;BME280;46248;58.364;25.582;2023-11-19T11:47:08;100929.84;;;-0.65;100.00
59767;BME280;46248;58.364;25.582;2023-11-19T11:50:34;100930.72;;;-0.62;100.00
59767;BME280;46248;58.364;25.582;2023-11-19T11:53:58;100933.28;;;-0.60;100.00
59767;BME280;46248;58.364;25.582;2023-11-19T11:57:21;100929.00;;;-0.60;100.00
59767;BME280;46248;58.364;25.582;2023-11-19T12:00:46;100928.16;;;-0.60;100.00
59767;BME280;46248;58.364;25.582;2023-11-19T12:04:10;100926.41;;;-0.64;100.00
59767;BME280;46248;58.364;25.582;2023-11-19T12:12:21;100912.69;;;-0.65;100.00
59767;BME280;46248;58.364;25.582;2023-11-19T12:16:10;100905.84;;;-0.66;100.00
59767;BME280;46248;58.364;25.582;2023-11-19T12:19:33;100904.13;;;-0.72;100.00
59767;BME280;46248;58.364;25.582;2023-11-19T12:22:57;100898.13;;;-0.74;100.00
59767;BME280;46248;58.364;25.582;2023-11-19T12:26:39;100895.56;;;-0.75;100.00
59767;BME280;46248;58.364;25.582;2023-11-19T12:30:05;100903.28;;;-0.78;100.00
59767;BME280;46248;58.364;25.582;2023-11-19T12:33:30;100910.13;;;-0.80;100.00
59767;BME280;46248;58.364;25.582;2023-11-19T12:36:53;100900.69;;;-0.84;100.00
59767;BME280;46248;58.364;25.582;2023-11-19T12:40:18;100901.53;;;-0.88;100.00
59767;BME280;46248;58.364;25.582;2023-11-19T12:43:42;100898.09;;;-0.83;100.00
59767;BME280;46248;58.364;25.582;2023-11-19T12:47:09;100897.25;;;-0.80;100.00
59767;BME280;46248;58.364;25.582;2023-11-19T12:50:50;100893.84;;;-0.84;100.00
59767;BME280;46248;58.364;25.582;2023-11-19T12:54:14;100886.97;;;-0.83;100.00
59767;BME280;46248;58.364;25.582;2023-11-19T12:57:39;100889.53;;;-0.82;100.00
59767;BME280;46248;58.364;25.582;2023-11-19T13:01:03;100886.09;;;-0.85;100.00
59767;BME280;46248;58.364;25.582;2023-11-19T13:04:30;100878.38;;;-0.92;100.00
59767;BME280;46248;58.364;25.582;2023-11-19T13:07:59;100890.41;;;-0.83;100.00
59767;BME280;46248;58.364;25.582;2023-11-19T13:11:30;100878.41;;;-0.84;100.00
59767;BME280;46248;58.364;25.582;2023-11-19T13:14:53;100868.94;;;-0.88;100.00
59767;BME280;46248;58.364;25.582;2023-11-19T13:18:16;100866.41;;;-0.86;100.00
59767;BME280;46248;58.364;25.582;2023-11-19T13:21:41;100870.69;;;-0.85;100.00
59767;BME280;46248;58.364;25.582;2023-11-19T13:25:05;100872.41;;;-0.87;100.00
59767;BME280;46248;58.364;25.582;2023-11-19T13:28:28;100868.09;;;-0.88;100.00
59767;BME280;46248;58.364;25.582;2023-11-19T13:31:51;100867.25;;;-0.92;100.00
59767;BME280;46248;58.364;25.582;2023-11-19T13:35:15;100865.53;;;-0.92;100.00
59767;BME280;46248;58.364;25.582;2023-11-19T13:38:39;100865.53;;;-0.90;100.00
59767;BME280;46248;58.364;25.582;2023-11-19T13:42:03;100855.25;;;-0.99;100.00
59767;BME280;46248;58.364;25.582;2023-11-19T13:45:29;100862.94;;;-0.98;100.00
59767;BME280;46248;58.364;25.582;2023-11-19T13:48:52;100859.53;;;-0.98;100.00
59767;BME280;46248;58.364;25.582;2023-11-19T13:52:15;100853.50;;;-1.03;100.00
59767;BME280;46248;58.364;25.582;2023-11-19T13:55:40;100857.81;;;-1.02;100.00
59767;BME280;46248;58.364;25.582;2023-11-19T13:59:04;100846.66;;;-1.07;100.00
59767;BME280;46248;58.364;25.582;2023-11-19T14:02:30;100850.97;;;-1.05;100.00
59767;BME280;46248;58.364;25.582;2023-11-19T14:05:53;100853.53;;;-1.02;100.00
59767;BME280;46248;58.364;25.582;2023-11-19T14:09:17;100833.81;;;-1.10;100.00
59767;BME280;46248;58.364;25.582;2023-11-19T14:12:42;100827.81;;;-1.12;100.00
59767;BME280;46248;58.364;25.582;2023-11-19T14:16:05;100844.09;;;-1.09;100.00
59767;BME280;46248;58.364;25.582;2023-11-19T14:19:30;100842.38;;;-1.08;100.00
59767;BME280;46248;58.364;25.582;2023-11-19T14:22:54;100841.53;;;-1.10;100.00
59767;BME280;46248;58.364;25.582;2023-11-19T14:26:16;100832.09;;;-1.14;100.00
59767;BME280;46248;58.364;25.582;2023-11-19T14:29:41;100836.34;;;-1.15;100.00
59767;BME280;46248;58.364;25.582;2023-11-19T14:33:04;100833.78;;;-1.15;100.00
59767;BME280;46248;58.364;25.582;2023-11-19T14:36:27;100838.94;;;-1.15;100.00
59767;BME280;46248;58.364;25.582;2023-11-19T14:39:50;100835.53;;;-1.17;100.00
59767;BME280;46248;58.364;25.582;2023-11-19T14:43:13;100831.22;;;-1.20;100.00
59767;BME280;46248;58.364;25.582;2023-11-19T14:46:38;100826.94;;;-1.19;100.00
59767;BME280;46248;58.364;25.582;2023-11-19T14:50:01;100820.94;;;-1.24;100.00
59767;BME280;46248;58.364;25.582;2023-11-19T14:53:24;100819.25;;;-1.21;100.00
59767;BME280;46248;58.364;25.582;2023-11-19T14:56:47;100826.94;;;-1.22;100.00
59767;BME280;46248;58.364;25.582;2023-11-19T15:00:10;100832.06;;;-1.22;100.00
59767;BME280;46248;58.364;25.582;2023-11-19T15:03:37;100825.22;;;-1.26;100.00
59767;BME280;46248;58.364;25.582;2023-11-19T15:07:03;100825.22;;;-1.26;100.00
59767;BME280;46248;58.364;25.582;2023-11-19T15:10:26;100828.66;;;-1.26;100.00
59767;BME280;46248;58.364;25.582;2023-11-19T15:13:49;100820.94;;;-1.26;100.00
59767;BME280;46248;58.364;25.582;2023-11-19T15:17:12;100824.38;;;-1.27;100.00
59767;BME280;46248;58.364;25.582;2023-11-19T15:20:36;100808.06;;;-1.36;100.00
59767;BME280;46248;58.364;25.582;2023-11-19T15:24:00;100808.06;;;-1.36;100.00
59767;BME280;46248;58.364;25.582;2023-11-19T15:27:25;100808.94;;;-1.39;100.00
59767;BME280;46248;58.364;25.582;2023-11-19T15:30:49;100826.06;;;-1.32;100.00
59767;BME280;46248;58.364;25.582;2023-11-19T15:34:11;100823.50;;;-1.32;100.00
59767;BME280;46248;58.364;25.582;2023-11-19T15:37:37;100816.63;;;-1.39;100.00
59767;BME280;46248;58.364;25.582;2023-11-19T15:41:00;100832.91;;;-1.32;100.00
59767;BME280;46248;58.364;25.582;2023-11-19T15:44:24;100834.63;;;-1.33;100.00
59767;BME280;46248;58.364;25.582;2023-11-19T15:47:49;100832.03;;;-1.38;100.00
59767;BME280;46248;58.364;25.582;2023-11-19T15:51:12;100838.88;;;-1.36;100.00
59767;BME280;46248;58.364;25.582;2023-11-19T15:54:36;100833.75;;;-1.36;100.00
59767;BME280;46248;58.364;25.582;2023-11-19T15:58:01;100832.88;;;-1.40;100.00
59767;BME280;46248;58.364;25.582;2023-11-19T16:01:23;100820.91;;;-1.41;100.00
59767;BME280;46248;58.364;25.582;2023-11-19T16:04:48;100816.63;;;-1.41;100.00
59767;BME280;46248;58.364;25.582;2023-11-19T16:08:12;100835.47;;;-1.34;100.00
59767;BME280;46248;58.364;25.582;2023-11-19T16:11:37;100826.06;;;-1.35;100.00
59767;BME280;46248;58.364;25.582;2023-11-19T16:15:16;100839.75;;;-1.36;100.00
59767;BME280;46248;58.364;25.582;2023-11-19T16:18:56;100847.44;;;-1.38;100.00
59767;BME280;46248;58.364;25.582;2023-11-19T16:22:20;100843.19;;;-1.39;100.00
59767;BME280;46248;58.364;25.582;2023-11-19T16:25:44;100843.19;;;-1.39;100.00
59767;BME280;46248;58.364;25.582;2023-11-19T16:29:08;100831.19;;;-1.36;100.00
59767;BME280;46248;58.364;25.582;2023-11-19T16:32:31;100843.19;;;-1.35;100.00
59767;BME280;46248;58.364;25.582;2023-11-19T16:35:56;100845.75;;;-1.35;100.00
59767;BME280;46248;58.364;25.582;2023-11-19T16:39:20;100832.03;;;-1.38;100.00
59767;BME280;46248;58.364;25.582;2023-11-19T16:42:45;100832.88;;;-1.43;100.00
59767;BME280;46248;58.364;25.582;2023-11-19T16:46:11;100833.75;;;-1.36;100.00
59767;BME280;46248;58.364;25.582;2023-11-19T16:49:34;100826.03;;;-1.43;100.00
59767;BME280;46248;58.364;25.582;2023-11-19T16:52:57;100827.75;;;-1.39;100.00
59767;BME280;46248;58.364;25.582;2023-11-19T16:56:20;100829.47;;;-1.42;100.00
59767;BME280;46248;58.364;25.582;2023-11-19T16:59:44;100823.44;;;-1.46;100.00
59767;BME280;46248;58.364;25.582;2023-11-19T17:03:10;100826.91;;;-1.41;100.00
59767;BME280;46248;58.364;25.582;2023-11-19T17:06:34;100833.75;;;-1.44;100.00
59767;BME280;46248;58.364;25.582;2023-11-19T17:09:57;100837.19;;;-1.42;100.00
59767;BME280;46248;58.364;25.582;2023-11-19T17:13:20;100833.75;;;-1.44;100.00
59767;BME280;46248;58.364;25.582;2023-11-19T17:16:43;100833.72;;;-1.43;100.00
59767;BME280;46248;58.364;25.582;2023-11-19T17:20:08;100831.16;;;-1.47;100.00
59767;BME280;46248;58.364;25.582;2023-11-19T17:23:32;100834.59;;;-1.41;100.00
59767;BME280;46248;58.364;25.582;2023-11-19T17:26:55;100826.03;;;-1.50;100.00